»·PEaware :: ROPER71 KLSV-KLSV

ROPER71 :: KLSV-KLSV

FLIGHT INFORMATION

Flight Status: Arrived
Operator: Unknown
More flights by this operator :: More flights under this callsign
Pilot: Anonymous 3903 (3903)
Aircraft: NORTHROP F-5 FREEDON FIGHTER
(F5)
More flights by this aircraft type
Origin: KLSV Nellis AFB
United States
Destination: KLSV Nellis AFB
United States
More flights between these airports :: More routes between these airports
Route: +
File this flight plan on PilotEdge
Remarks:
Altitude:
(Current/Filed)
7,000ft
Speed:
(Current/Filed)
0kts
Departed: 18-Dec-18 08:33 PM
Arrived: 18-Dec-18 09:36 PM
Distance/Time
Traveled:
1nm/1:03
Distance/Time
To Go:
Arrived

Flight Plot

Page will automatically refresh every two minutes.


Map Options




Map Legend


Flown Route
Filed Route
Departure Airport
Arrival Airport
Navaid (VOR, NDB)
Fix

Horizontal Profiles

Position Reports

Time Latitude Longitude Heading Altitude Ground
Speed
18-Dec-18 20:23 36.230639 -115.047275 220 1853ft 0kts
18-Dec-18 20:24 36.230639 -115.047275 220 1853ft 0kts
18-Dec-18 20:25 36.230639 -115.047275 220 1853ft 0kts
18-Dec-18 20:26 36.230639 -115.047275 220 1853ft 0kts
18-Dec-18 20:27 36.230308 -115.047449 141 1853ft 10kts
18-Dec-18 20:28 36.227294 -115.047775 129 1848ft 0kts
18-Dec-18 20:29 36.227294 -115.047775 129 1848ft 0kts
18-Dec-18 20:30 36.227294 -115.047775 129 1848ft 0kts
18-Dec-18 20:31 36.227102 -115.046324 39 1846ft 4kts
18-Dec-18 20:32 36.251823 -115.017574 42 3500ft 208kts
18-Dec-18 20:33 36.300286 -114.952426 45 7151ft 288kts
18-Dec-18 20:34 36.351818 -114.878261 23 9018ft 269kts
18-Dec-18 20:35 36.418105 -114.821491 42 9016ft 302kts
18-Dec-18 20:36 36.476992 -114.749649 39 9062ft 288kts
18-Dec-18 20:37 36.495913 -114.659772 87 9069ft 280kts
18-Dec-18 20:38 36.518770 -114.572099 10 9105ft 285kts
18-Dec-18 20:39 36.553830 -114.633700 256 9144ft 280kts
18-Dec-18 20:40 36.510679 -114.713393 224 9072ft 275kts
18-Dec-18 20:41 36.454149 -114.775363 225 8034ft 249kts
18-Dec-18 20:42 36.407885 -114.831280 229 5992ft 224kts
18-Dec-18 20:43 36.366046 -114.883916 223 4451ft 206kts
18-Dec-18 20:44 36.323759 -114.933650 224 4205ft 211kts
18-Dec-18 20:45 36.283872 -114.981199 222 3174ft 184kts
18-Dec-18 20:46 36.243616 -115.025561 216 2776ft 212kts
18-Dec-18 20:47 36.208638 -115.093923 288 6395ft 258kts
18-Dec-18 20:48 36.273983 -115.105097 32 11313ft 291kts
18-Dec-18 20:49 36.350553 -115.035195 33 14251ft 380kts
18-Dec-18 20:50 36.444781 -114.973709 11 15160ft 373kts
18-Dec-18 20:51 36.539040 -114.986378 311 15105ft 347kts
18-Dec-18 20:52 36.530869 -115.093000 216 15094ft 356kts
18-Dec-18 20:53 36.435090 -115.130501 182 15143ft 369kts
18-Dec-18 20:54 36.333058 -115.128283 180 14004ft 358kts
18-Dec-18 20:55 36.234791 -115.127962 181 11782ft 347kts
18-Dec-18 20:56 36.141532 -115.136701 216 10187ft 330kts
18-Dec-18 20:57 36.070188 -115.215653 225 10189ft 343kts
18-Dec-18 20:58 36.005396 -115.289870 224 10264ft 303kts
18-Dec-18 20:59 35.931568 -115.329852 181 10105ft 299kts
18-Dec-18 21:00 35.859689 -115.349827 253 10154ft 250kts
18-Dec-18 21:01 35.900885 -115.383126 18 10075ft 223kts
18-Dec-18 21:02 35.951261 -115.343641 36 9234ft 221kts
18-Dec-18 21:03 35.996396 -115.289802 36 9187ft 229kts
18-Dec-18 21:04 36.043725 -115.237964 34 8740ft 230kts
18-Dec-18 21:05 36.094019 -115.188653 33 7459ft 229kts
18-Dec-18 21:06 36.142458 -115.137352 38 5772ft 227kts
18-Dec-18 21:07 36.186456 -115.084864 36 3214ft 202kts
18-Dec-18 21:08 36.226533 -115.043784 38 3840ft 223kts
18-Dec-18 21:09 36.280693 -114.979148 41 6506ft 319kts
18-Dec-18 21:10 36.350225 -114.898510 41 9079ft 338kts
18-Dec-18 21:11 36.391329 -114.806654 105 7925ft 305kts
18-Dec-18 21:12 36.328801 -114.748914 154 7038ft 289kts
18-Dec-18 21:13 36.254867 -114.700947 153 7126ft 305kts
18-Dec-18 21:14 36.175282 -114.702593 190 6272ft 282kts
18-Dec-18 21:15 36.098307 -114.718662 204 6037ft 276kts
18-Dec-18 21:16 36.057595 -114.792574 243 5698ft 250kts
18-Dec-18 21:17 36.049499 -114.867407 277 5513ft 199kts
18-Dec-18 21:18 36.056492 -114.932538 281 4520ft 181kts
18-Dec-18 21:19 36.063987 -114.995686 275 4620ft 183kts
18-Dec-18 21:20 36.067278 -115.051974 280 3210ft 163kts
18-Dec-18 21:21 36.074602 -115.113688 276 3617ft 194kts
18-Dec-18 21:22 36.032597 -115.143738 127 6154ft 296kts
18-Dec-18 21:23 36.028111 -115.045105 84 6067ft 287kts
18-Dec-18 21:24 36.011774 -114.950567 98 6122ft 280kts
18-Dec-18 21:25 35.996508 -114.857393 74 6043ft 286kts
18-Dec-18 21:26 36.061690 -114.840293 331 6129ft 297kts
18-Dec-18 21:27 36.127435 -114.899315 314 6048ft 286kts
18-Dec-18 21:28 36.183840 -114.968336 309 4929ft 284kts
18-Dec-18 21:29 36.234161 -115.040190 314 3047ft 261kts
18-Dec-18 21:30 36.293266 -115.023458 46 2920ft 255kts
18-Dec-18 21:31 36.245315 -115.026492 219 2826ft 310kts
18-Dec-18 21:32 36.266196 -115.044735 43 2863ft 178kts
18-Dec-18 21:33 36.258100 -115.012511 216 2204ft 196kts
18-Dec-18 21:34 36.230506 -115.042519 220 1847ft 72kts
18-Dec-18 21:36 36.228767 -115.046921 40 1850ft 16kts
18-Dec-18 21:37 36.230743 -115.047163 220 1853ft 7kts
18-Dec-18 21:38 36.230674 -115.047238 220 1853ft 0kts
18-Dec-18 21:39 36.230674 -115.047238 220 1853ft 0kts
18-Dec-18 21:40 36.230674 -115.047238 220 1853ft 0kts
18-Dec-18 21:41 36.230674 -115.047238 220 1853ft 0kts
18-Dec-18 21:42 36.230674 -115.047238 220 1853ft 0kts
18-Dec-18 21:43 36.230674 -115.047238 220 1853ft 0kts
18-Dec-18 21:44 36.230674 -115.047238 220 1853ft 0kts
18-Dec-18 21:45 36.230674 -115.047238 220 1853ft 0kts
18-Dec-18 21:46 36.230674 -115.047238 220 1853ft 0kts
18-Dec-18 21:47 36.230674 -115.047238 220 1853ft 0kts
18-Dec-18 21:48 36.230674 -115.047238 220 1853ft 0kts
18-Dec-18 21:49 36.230674 -115.047238 220 1853ft 0kts
18-Dec-18 21:50 36.230674 -115.047238 220 1853ft 0kts
18-Dec-18 21:51 36.230674 -115.047238 220 1853ft 0kts

Navigation Log

Ident Type
Flight plan parsing failed, navigation log unavailable